Parksville, New York
Current Conditions -  °F | °C
As of 4:55 PM on Friday 28 Nov 2014 (Local Time) from KMSV Reporting Station
Clear Clear  
Wind Chill: 13°   Ceiling: Unl
Heat Index: 21°   Visibility: 10mi
Dew Point: 10°   Wind: 7mph
Humidity: 63%   Direction: 290°WNW
Pressure: 30.16"   Gusts: NA
Location:  41.86°N, 74.76°W
Report Text: KMSV 282155Z AUTO 29006KT 10SM CLR M06/M12 A3016 RMK AO1
Loading
Personal Weather Stations






























Interactive Weather Map New forecast layout! Learn more

10-Day Weather Forecast

Advertisements
Track Severe Weather on mobile